Oboyan', Russia
Current Conditions -  °F | °C
As of 10:00 AM on Monday 24 Nov 2014 (Local Time) from UUOB Reporting Station
Clear Clear  
Wind Chill: 19°   Ceiling: Unl
Heat Index: 28°   Visibility: 6mi
Dew Point: 23°   Wind: 11mph
Humidity: 80%   Direction: 90°E
Pressure: 30.56"   Gusts: NA
Location:  51.21°N, 36.45°E
Report Text: UUOB 240700Z 09005MPS CAVOK M02/M05 Q1035 11090060 NOSIG
Loading
Personal Weather Stations






























Interactive Weather Map New forecast layout! Learn more

10-Day Weather Forecast

Advertisements
Track Severe Weather on mobile